Time;durP1;ratioP1;P1;durP2;ratioP2;P2;SDS_P1;SDS_P2;PMS_P1;PMS_P2;Temp;Humidity;BMP_temperature;BMP_pressure;BME280_temperature;BME280_humidity;BME280_pressure;Samples;Min_cycle;Max_cycle;Signal;HPM_P1;HPM_P2
2022/01/22 00:01:16;;;;;;;1.40;0.68;;;;;;;4.91;100.00;102442.31;6300071;28;20052;-77
2022/01/22 00:04:17;;;;;;;1.35;1.00;;;;;;;4.92;100.00;102448.38;6300975;28;20082;-77
2022/01/22 00:07:20;;;;;;;1.25;1.05;;;;;;;4.89;100.00;102449.25;6300536;28;20045;-77
2022/01/22 00:10:23;;;;;;;1.20;1.05;;;;;;;4.91;100.00;102449.25;6300414;28;20056;-77
2022/01/22 00:16:44;;;;;;;0.77;0.77;;;;;;;4.89;100.00;102461.41;6299788;28;20052;-78
2022/01/22 00:19:45;;;;;;;1.00;0.75;;;;;;;4.86;100.00;102461.38;6299839;28;20048;-77
2022/01/22 00:22:48;;;;;;;1.27;0.77;;;;;;;4.88;100.00;102468.34;6300413;28;20056;-77
2022/01/22 00:25:49;;;;;;;2.25;1.13;;;;;;;4.84;100.00;102451.84;6299652;28;20143;-77
2022/01/22 00:28:51;;;;;;;0.73;0.68;;;;;;;4.88;100.00;102450.13;6298404;28;20055;-77
2022/01/22 00:31:52;;;;;;;1.50;0.75;;;;;;;4.84;100.00;102459.66;6296488;28;20415;-77
2022/01/22 00:34:53;;;;;;;2.35;1.15;;;;;;;4.88;100.00;102454.47;6299500;28;20064;-77
2022/01/22 00:37:56;;;;;;;0.65;0.65;;;;;;;4.86;100.00;102449.25;6299384;28;20045;-77
2022/01/22 00:40:57;;;;;;;0.77;0.57;;;;;;;4.85;100.00;102439.69;6287825;28;20052;-77
2022/01/22 00:43:59;;;;;;;0.73;0.55;;;;;;;4.85;100.00;102444.91;6292419;28;20052;-77
2022/01/22 00:47:02;;;;;;;1.55;0.60;;;;;;;4.85;100.00;102437.09;6297025;28;20053;-77
2022/01/22 00:50:04;;;;;;;0.43;0.43;;;;;;;4.84;100.00;102438.81;6296599;28;20127;-77
2022/01/22 00:53:07;;;;;;;1.58;1.00;;;;;;;4.84;100.00;102448.38;6295282;28;20053;-77
2022/01/22 00:56:08;;;;;;;0.63;0.60;;;;;;;4.85;100.00;102439.69;6297847;28;20060;-77
2022/01/22 00:59:09;;;;;;;0.50;0.50;;;;;;;4.88;100.00;102442.28;6297468;28;20487;-78
2022/01/22 01:02:11;;;;;;;0.88;0.57;;;;;;;4.88;100.00;102447.50;6298547;28;20056;-77
2022/01/22 01:05:14;;;;;;;1.17;0.80;;;;;;;4.87;100.00;102442.31;6298905;28;20058;-77
2022/01/22 01:08:16;;;;;;;1.25;0.85;;;;;;;4.87;100.00;102440.56;6299028;28;20045;-77
2022/01/22 01:11:18;;;;;;;0.90;0.50;;;;;;;4.90;100.00;102443.16;6297869;28;20076;-76
2022/01/22 01:14:26;;;;;;;1.10;0.70;;;;;;;4.90;100.00;102443.16;6298360;28;20048;-77
2022/01/22 01:17:46;;;;;;;1.20;0.63;;;;;;;4.93;100.00;102444.88;6299122;28;20052;-76
2022/01/22 01:34:11;;;;;;;2.58;0.52;;;;;;;4.95;100.00;102451.84;6273338;28;20049;-77
2022/01/22 01:37:15;;;;;;;1.13;0.85;;;;;;;4.95;100.00;102436.22;6273372;28;20059;-78
2022/01/22 01:40:20;;;;;;;0.80;0.60;;;;;;;4.96;100.00;102450.09;6272439;28;20191;-77
2022/01/22 01:43:26;;;;;;;1.38;0.95;;;;;;;4.96;100.00;102450.97;6272913;28;20049;-77
2022/01/22 01:46:31;;;;;;;0.98;0.85;;;;;;;4.97;100.00;102451.84;6272786;28;20049;-77
2022/01/22 01:49:33;;;;;;;1.42;0.88;;;;;;;5.00;100.00;102454.44;6272554;28;20138;-77
2022/01/22 01:52:41;;;;;;;0.70;0.57;;;;;;;5.00;100.00;102452.69;6272289;28;20045;-77
2022/01/22 01:56:01;;;;;;;2.03;0.73;;;;;;;5.03;100.00;102450.06;6272447;28;20090;-77
2022/01/22 01:59:01;;;;;;;1.25;0.80;;;;;;;5.05;100.00;102463.09;6272627;28;20049;-77
2022/01/22 02:02:04;;;;;;;2.38;1.08;;;;;;;5.04;100.00;102472.66;6292418;28;20507;-77
2022/01/22 02:05:08;;;;;;;1.35;0.90;;;;;;;5.07;100.00;102479.59;6297118;28;20538;-77
2022/01/22 02:08:12;;;;;;;1.83;0.93;;;;;;;5.06;100.00;102470.03;6295362;28;20045;-77
2022/01/22 02:11:17;;;;;;;2.03;0.90;;;;;;;5.05;100.00;102465.72;6297066;28;20097;-77
2022/01/22 02:24:17;;;;;;;0.90;0.60;;;;;;;5.08;100.00;102479.56;6296358;28;20086;-77
2022/01/22 02:27:20;;;;;;;2.13;1.15;;;;;;;5.12;100.00;102479.56;6297176;28;20066;-77
2022/01/22 02:30:25;;;;;;;2.97;1.00;;;;;;;5.16;100.00;102482.16;6294957;28;20041;-78
2022/01/22 02:33:33;;;;;;;1.67;1.33;;;;;;;5.13;100.00;102474.34;6296761;28;20093;-77
2022/01/22 02:36:40;;;;;;;1.08;0.60;;;;;;;5.14;100.00;102476.09;6296487;28;20462;-77
2022/01/22 02:39:50;;;;;;;3.33;0.90;;;;;;;5.13;100.00;102478.69;6296314;28;20063;-77
2022/01/22 02:42:52;;;;;;;1.25;0.52;;;;;;;5.14;100.00;102488.28;6296359;28;20055;-77
2022/01/22 02:45:54;;;;;;;0.98;0.80;;;;;;;5.15;100.00;102488.25;6296603;28;20059;-77
2022/01/22 02:48:57;;;;;;;1.63;1.00;;;;;;;5.18;100.00;102496.06;6295791;28;20416;-76
2022/01/22 02:51:59;;;;;;;1.42;1.00;;;;;;;5.20;100.00;102488.25;6295479;28;20056;-77
2022/01/22 02:55:05;;;;;;;1.35;0.80;;;;;;;5.19;100.00;102494.34;6296039;28;20060;-76
2022/01/22 02:58:07;;;;;;;1.40;0.77;;;;;;;5.18;100.00;102493.47;6296290;28;20047;-78
2022/01/22 03:01:08;;;;;;;1.58;1.13;;;;;;;5.20;100.00;102504.75;6294278;28;20119;-76
2022/01/22 03:04:09;;;;;;;1.35;0.68;;;;;;;5.20;100.00;102501.28;6295409;28;20492;-77
2022/01/22 03:07:11;;;;;;;0.82;0.73;;;;;;;5.25;100.00;102515.16;6295645;28;20056;-78
2022/01/22 03:10:15;;;;;;;1.48;0.75;;;;;;;5.22;100.00;102508.22;6294970;28;20049;-78
2022/01/22 03:13:57;;;;;;;1.05;0.75;;;;;;;5.23;100.00;102509.09;6295106;28;20056;-78
2022/01/22 03:16:53;;;;;;;2.22;0.82;;;;;;;5.25;100.00;102508.19;6295055;28;20429;-77
2022/01/22 03:20:03;;;;;;;1.17;0.80;;;;;;;5.26;100.00;102502.09;6294993;28;20065;-77
2022/01/22 03:23:09;;;;;;;0.98;0.70;;;;;;;5.28;100.00;102504.72;6294986;28;20048;-78
2022/01/22 03:29:34;;;;;;;1.27;0.75;;;;;;;5.30;100.00;102509.06;6294717;28;20044;-77
2022/01/22 03:32:40;;;;;;;2.70;0.93;;;;;;;5.31;100.00;102510.81;6292746;28;20141;-78
2022/01/22 03:35:45;;;;;;;1.38;0.82;;;;;;;5.33;100.00;102516.88;6298113;28;20557;-78
2022/01/22 03:38:47;;;;;;;1.02;0.50;;;;;;;5.32;100.00;102516.88;6299639;28;20492;-78
2022/01/22 03:41:51;;;;;;;0.45;0.38;;;;;;;5.33;100.00;102526.44;6299170;28;20044;-77
2022/01/22 03:44:53;;;;;;;0.50;0.50;;;;;;;5.37;100.00;102532.50;6300051;28;20068;-78
2022/01/22 03:47:54;;;;;;;1.35;0.73;;;;;;;5.36;100.00;102536.88;6299186;28;20511;-78
2022/01/22 03:50:56;;;;;;;0.68;0.68;;;;;;;5.33;100.00;102534.25;6298987;28;20056;-78
2022/01/22 03:53:58;;;;;;;0.60;0.25;;;;;;;5.41;100.00;102529.03;6299256;28;20055;-78
2022/01/22 03:57:01;;;;;;;1.45;0.50;;;;;;;5.34;100.00;102521.22;6299333;28;20055;-77
2022/01/22 04:00:04;;;;;;;0.73;0.52;;;;;;;5.39;100.00;102515.13;6299173;28;20045;-78
2022/01/22 04:03:27;;;;;;;1.88;0.63;;;;;;;5.39;100.00;102530.75;6275115;28;20049;-77
2022/01/22 04:07:02;;;;;;;0.50;0.20;;;;;;;5.35;100.00;102530.75;6274214;28;20075;-78
2022/01/22 04:10:04;;;;;;;0.30;0.30;;;;;;;5.37;100.00;102533.38;6285782;28;20044;-77
2022/01/22 04:13:11;;;;;;;0.98;0.77;;;;;;;5.36;100.00;102534.25;6298665;28;20056;-78
2022/01/22 04:16:13;;;;;;;1.67;0.65;;;;;;;5.37;100.00;102535.97;6292671;28;20060;-77
2022/01/22 04:26:00;;;;;;;1.52;0.68;;;;;;;5.41;100.00;102537.72;6298307;28;20124;-78
2022/01/22 04:29:03;;;;;;;0.80;0.50;;;;;;;5.42;100.00;102542.06;6298557;28;20056;-78
2022/01/22 04:32:06;;;;;;;1.23;0.65;;;;;;;5.41;100.00;102542.06;6297943;28;20424;-78
2022/01/22 04:35:08;;;;;;;0.80;0.40;;;;;;;5.41;100.00;102539.47;6298573;28;20055;-78
2022/01/22 04:38:09;;;;;;;1.70;0.77;;;;;;;5.43;100.00;102540.31;6298081;28;20495;-78
2022/01/22 04:41:11;;;;;;;0.45;0.40;;;;;;;5.44;100.00;102548.13;6285695;28;20056;-77
2022/01/22 04:44:14;;;;;;;1.23;0.38;;;;;;;5.41;100.00;102536.84;6279359;28;20488;-78
2022/01/22 04:47:27;;;;;;;0.85;0.32;;;;;;;5.44;100.00;102550.72;6287475;28;20053;-77
2022/01/22 04:57:06;;;;;;;0.43;0.38;;;;;;;5.47;100.00;102552.47;6286408;28;20044;-78
2022/01/22 05:00:12;;;;;;;1.27;0.47;;;;;;;5.46;100.00;102555.94;6287149;28;20380;-78
2022/01/22 05:03:15;;;;;;;0.40;0.40;;;;;;;5.45;100.00;102559.41;6298776;28;20055;-78
2022/01/22 05:06:18;;;;;;;0.55;0.40;;;;;;;5.46;100.00;102564.63;6287594;28;20040;-78
2022/01/22 05:09:19;;;;;;;1.20;0.38;;;;;;;5.49;100.00;102562.00;6288111;28;20055;-78
2022/01/22 05:12:20;;;;;;;1.45;0.63;;;;;;;5.49;100.00;102554.19;6286994;28;20492;-78
2022/01/22 05:15:23;;;;;;;2.92;1.15;;;;;;;5.44;100.00;102555.06;6276966;28;20511;-78
2022/01/22 05:18:24;;;;;;;0.80;0.70;;;;;;;5.39;100.00;102557.69;6279562;28;20055;-76
2022/01/22 05:21:28;;;;;;;1.80;0.88;;;;;;;5.44;100.00;102563.75;6298130;28;20102;-78
2022/01/22 05:24:32;;;;;;;4.82;1.05;;;;;;;5.42;100.00;102570.72;6298086;28;20045;-78
2022/01/22 05:31:09;;;;;;;1.67;1.05;;;;;;;5.39;100.00;102568.13;6318655;28;20381;-78
2022/01/22 05:37:31;;;;;;;3.17;1.40;;;;;;;5.36;100.00;102581.19;6318577;28;20052;-78
2022/01/22 05:40:33;;;;;;;5.55;1.58;;;;;;;5.32;100.00;102580.31;6318324;28;20040;-78
2022/01/22 05:43:34;;;;;;;5.15;2.45;;;;;;;5.34;100.00;102590.72;6313081;28;20048;-78
2022/01/22 05:46:37;;;;;;;3.78;1.50;;;;;;;5.34;100.00;102603.75;6303567;28;20049;-78
2022/01/22 05:49:42;;;;;;;6.53;1.52;;;;;;;5.33;100.00;102602.91;6318174;28;20056;-78
2022/01/22 05:52:54;;;;;;;7.32;1.90;;;;;;;5.34;100.00;102598.56;6318332;28;20052;-78
2022/01/22 06:02:35;;;;;;;3.35;1.45;;;;;;;5.27;100.00;102600.31;6317884;28;20083;-78
2022/01/22 06:05:36;;;;;;;2.50;1.27;;;;;;;5.27;100.00;102604.66;6318024;28;20419;-78
2022/01/22 06:08:44;;;;;;;6.80;1.90;;;;;;;5.28;100.00;102614.22;6317914;28;20135;-78
2022/01/22 06:11:55;;;;;;;7.82;2.78;;;;;;;5.28;100.00;102614.22;6310762;28;20040;-78
2022/01/22 06:14:56;;;;;;;3.13;1.48;;;;;;;5.31;100.00;102615.09;6312206;28;20045;-78
2022/01/22 06:17:59;;;;;;;2.70;1.30;;;;;;;5.29;100.00;102615.94;6309158;28;20048;-78
2022/01/22 06:21:00;;;;;;;4.10;1.13;;;;;;;5.31;100.00;102611.56;6314034;28;20044;-78
2022/01/22 06:24:01;;;;;;;3.00;0.88;;;;;;;5.27;100.00;102615.94;6316035;28;20059;-79
2022/01/22 06:27:03;;;;;;;1.20;0.98;;;;;;;5.25;100.00;102628.09;6317685;28;20078;-78
2022/01/22 06:30:05;;;;;;;1.83;0.93;;;;;;;5.27;100.00;102626.38;6315706;28;20067;-78
2022/01/22 06:33:08;;;;;;;2.85;0.95;;;;;;;5.30;100.00;102633.31;6317503;28;20393;-78
2022/01/22 06:36:09;;;;;;;2.28;0.60;;;;;;;5.27;100.00;102625.50;6315266;28;20040;-79
2022/01/22 06:39:12;;;;;;;4.18;1.73;;;;;;;5.32;100.00;102635.06;6312098;28;20044;-78
2022/01/22 06:42:13;;;;;;;1.92;0.98;;;;;;;5.32;100.00;102626.38;6311230;28;20050;-79
2022/01/22 06:45:14;;;;;;;4.82;1.27;;;;;;;5.34;100.00;102627.22;6308543;28;20052;-78
2022/01/22 06:48:17;;;;;;;1.73;0.98;;;;;;;5.35;100.00;102642.84;6300618;28;20523;-78
2022/01/22 06:51:22;;;;;;;3.63;1.70;;;;;;;5.34;100.00;102648.94;6299765;28;20056;-78
2022/01/22 06:54:23;;;;;;;5.28;1.92;;;;;;;5.32;100.00;102642.00;6300298;28;20045;-79
2022/01/22 06:57:24;;;;;;;3.67;1.40;;;;;;;5.36;100.00;102654.19;6300162;28;20049;-78
2022/01/22 07:00:26;;;;;;;5.53;1.83;;;;;;;5.34;100.00;102658.50;6299796;28;20434;-78
2022/01/22 07:03:30;;;;;;;2.15;1.33;;;;;;;5.33;100.00;102656.78;6279757;28;20045;-78
2022/01/22 07:06:31;;;;;;;2.67;1.45;;;;;;;5.34;100.00;102663.72;6274755;28;20443;-79
2022/01/22 07:09:33;;;;;;;2.45;1.67;;;;;;;5.33;100.00;102664.59;6274751;28;20045;-78
2022/01/22 07:12:34;;;;;;;3.53;1.58;;;;;;;5.35;100.00;102674.13;6291079;28;20044;-78
2022/01/22 07:15:36;;;;;;;2.30;1.02;;;;;;;5.38;100.00;102675.03;6298243;28;20048;-78
2022/01/22 07:18:39;;;;;;;4.70;1.45;;;;;;;5.34;100.00;102674.16;6299762;28;20052;-78
2022/01/22 07:21:42;;;;;;;3.53;1.08;;;;;;;5.32;100.00;102683.72;6299329;28;20392;-78
2022/01/22 07:24:43;;;;;;;3.67;1.33;;;;;;;5.33;100.00;102688.94;6299698;28;20048;-79
2022/01/22 07:27:45;;;;;;;2.03;0.82;;;;;;;5.37;100.00;102691.53;6304195;28;20044;-78
2022/01/22 07:30:48;;;;;;;2.38;1.10;;;;;;;5.37;100.00;102684.59;6303725;28;20041;-78
2022/01/22 07:33:51;;;;;;;2.03;0.82;;;;;;;5.35;100.00;102691.53;6299405;28;20059;-78
2022/01/22 07:36:52;;;;;;;0.75;0.63;;;;;;;5.33;100.00;102681.09;6299326;28;20053;-78
2022/01/22 07:39:53;;;;;;;2.67;0.93;;;;;;;5.37;100.00;102681.13;6298934;28;20044;-78
2022/01/22 07:42:55;;;;;;;1.88;0.80;;;;;;;5.33;100.00;102688.94;6299134;28;20056;-78
2022/01/22 07:45:57;;;;;;;1.45;0.50;;;;;;;5.33;100.00;102682.84;6298842;28;20583;-78
2022/01/22 07:48:59;;;;;;;0.65;0.50;;;;;;;5.34;100.00;102684.56;6299173;28;20051;-79
2022/01/22 07:52:01;;;;;;;1.67;0.82;;;;;;;5.38;100.00;102683.72;6297796;28;20056;-78
2022/01/22 07:55:03;;;;;;;1.02;0.68;;;;;;;5.32;100.00;102681.97;6297066;28;20048;-78
2022/01/22 07:58:04;;;;;;;3.30;0.43;;;;;;;5.32;100.00;102683.72;6298435;28;20491;-78
2022/01/22 08:01:06;;;;;;;1.35;0.60;;;;;;;5.30;100.00;102686.31;6298450;28;20051;-78
2022/01/22 08:04:08;;;;;;;0.70;0.40;;;;;;;5.33;100.00;102685.44;6298562;28;20491;-78
2022/01/22 08:07:11;;;;;;;0.43;0.38;;;;;;;5.35;100.00;102689.78;6298864;28;20052;-78
2022/01/22 08:10:13;;;;;;;4.40;1.05;;;;;;;5.33;100.00;102690.66;6298104;28;20404;-79
2022/01/22 08:13:17;;;;;;;2.72;0.82;;;;;;;5.33;100.00;102686.31;6294182;28;20488;-78
2022/01/22 08:16:18;;;;;;;5.10;0.90;;;;;;;5.41;100.00;102688.94;6305022;28;20044;-78
2022/01/22 08:19:23;;;;;;;0.40;0.40;;;;;;;5.38;100.00;102699.34;6301710;28;20036;-79
2022/01/22 08:22:24;;;;;;;1.73;0.90;;;;;;;5.42;100.00;102697.63;6300974;28;20149;-78
2022/01/22 08:25:28;;;;;;;2.13;0.90;;;;;;;5.40;100.00;102697.59;6314643;28;20407;-78
2022/01/22 08:31:52;;;;;;;7.75;1.25;;;;;;;5.39;100.00;102714.13;6323152;28;20519;-78
2022/01/22 08:38:14;;;;;;;4.40;0.93;;;;;;;5.40;100.00;102717.59;6295420;28;20415;-78
2022/01/22 08:41:16;;;;;;;0.85;0.50;;;;;;;5.42;100.00;102727.16;6297172;28;20415;-78
2022/01/22 08:44:17;;;;;;;5.20;1.08;;;;;;;5.35;100.00;102733.22;6297638;28;20056;-78
2022/01/22 08:47:19;;;;;;;0.90;0.63;;;;;;;5.33;100.00;102735.84;6295477;28;20045;-77
2022/01/22 08:50:23;;;;;;;0.57;0.32;;;;;;;5.37;100.00;102739.34;6296997;28;20049;-76
2022/01/22 08:53:25;;;;;;;0.88;0.50;;;;;;;5.42;100.00;102731.50;6293381;28;20045;-78
2022/01/22 08:56:27;;;;;;;2.20;0.63;;;;;;;5.49;100.00;102739.31;6293859;28;20529;-79
2022/01/22 08:59:28;;;;;;;1.52;0.70;;;;;;;5.51;100.00;102728.91;6296648;28;20049;-79
2022/01/22 09:02:29;;;;;;;0.82;0.60;;;;;;;5.52;100.00;102735.84;6296628;28;20064;-80
2022/01/22 09:05:35;;;;;;;1.00;0.65;;;;;;;5.57;100.00;102736.72;6296829;28;20415;-79
2022/01/22 09:08:37;;;;;;;1.13;0.52;;;;;;;5.57;100.00;102740.19;6298212;28;20127;-79
2022/01/22 09:11:44;;;;;;;0.45;0.45;;;;;;;5.60;100.00;102742.81;6294832;28;20044;-83
2022/01/22 09:14:45;;;;;;;0.98;0.60;;;;;;;5.64;100.00;102738.47;6300655;28;20036;-78
2022/01/22 09:17:48;;;;;;;1.13;0.75;;;;;;;5.63;100.00;102747.13;6299584;28;20048;-81
2022/01/22 09:21:04;;;;;;;0.93;0.45;;;;;;;5.63;100.00;102746.25;6280877;28;20045;-80
2022/01/22 09:24:06;;;;;;;1.40;0.90;;;;;;;5.61;100.00;102743.66;6276601;28;20198;-81
2022/01/22 09:27:08;;;;;;;2.97;0.55;;;;;;;5.59;100.00;102751.50;6278364;28;20041;-81
2022/01/22 09:30:10;;;;;;;0.68;0.55;;;;;;;5.60;100.00;102747.16;6290432;28;20419;-81
2022/01/22 09:33:11;;;;;;;0.57;0.50;;;;;;;5.59;100.00;102746.28;6292019;28;20048;-83
2022/01/22 09:36:15;;;;;;;0.63;0.40;;;;;;;5.62;100.00;102752.34;6290142;28;20044;-82
2022/01/22 09:39:16;;;;;;;2.70;0.50;;;;;;;5.62;100.00;102758.44;6274331;28;20045;-78
2022/01/22 09:42:18;;;;;;;2.20;0.40;;;;;;;5.62;100.00;102758.44;6271956;28;20052;-79
2022/01/22 09:45:32;;;;;;;2.13;0.88;;;;;;;5.60;100.00;102755.84;6271974;28;20241;-82
2022/01/22 09:48:33;;;;;;;4.57;0.88;;;;;;;5.60;100.00;102771.50;6272898;28;20044;-80
2022/01/22 09:51:35;;;;;;;1.05;0.50;;;;;;;5.62;100.00;102758.44;6272520;28;20052;-82
2022/01/22 09:54:37;;;;;;;1.70;1.50;;;;;;;5.62;100.00;102755.84;6295618;28;20041;-80
2022/01/22 09:57:40;;;;;;;1.15;0.63;;;;;;;5.64;100.00;102764.53;6296781;28;20052;-81
2022/01/22 10:00:41;;;;;;;1.08;0.60;;;;;;;5.65;100.00;102771.50;6297241;28;20056;-80
2022/01/22 10:03:42;;;;;;;1.00;0.70;;;;;;;5.71;100.00;102774.09;6293694;28;20442;-81
2022/01/22 10:06:52;;;;;;;1.00;0.77;;;;;;;5.73;100.00;102774.97;6297797;28;20051;-81
2022/01/22 10:09:58;;;;;;;0.98;0.63;;;;;;;5.75;100.00;102781.03;6298417;28;20063;-83
2022/01/22 10:13:00;;;;;;;0.73;0.57;;;;;;;5.79;100.00;102774.09;6296926;28;20044;-83
2022/01/22 10:16:11;;;;;;;2.08;1.00;;;;;;;5.81;100.00;102778.44;6283479;28;20045;-82
2022/01/22 10:19:16;;;;;;;1.45;0.65;;;;;;;5.84;100.00;102773.22;6249848;28;20417;-81
2022/01/22 10:22:20;;;;;;;0.95;0.70;;;;;;;5.86;100.00;102762.78;6250932;28;20045;-76
2022/01/22 10:25:23;;;;;;;0.68;0.68;;;;;;;5.85;100.00;102764.50;6243307;28;20053;-80
2022/01/22 10:28:27;;;;;;;0.90;0.50;;;;;;;5.83;100.00;102766.25;6245883;28;20053;-80
2022/01/22 10:31:42;;;;;;;0.88;0.47;;;;;;;5.89;100.00;102761.91;6263122;28;20073;-80
2022/01/22 10:34:43;;;;;;;0.50;0.47;;;;;;;5.90;100.00;102766.25;6275828;28;20084;-80
2022/01/22 10:37:46;;;;;;;1.27;0.80;;;;;;;5.89;100.00;102769.72;6275497;28;20053;-80
2022/01/22 10:40:49;;;;;;;1.35;0.88;;;;;;;5.89;100.00;102765.38;6274744;28;20519;-80
2022/01/22 10:43:53;;;;;;;1.48;0.60;;;;;;;5.88;100.00;102768.88;6275442;28;20416;-80
2022/01/22 10:47:04;;;;;;;2.00;0.68;;;;;;;5.90;100.00;102769.72;6271564;28;20095;-80
2022/01/22 10:50:19;;;;;;;1.38;0.77;;;;;;;5.90;100.00;102771.47;6250413;28;20049;-80
2022/01/22 10:53:34;;;;;;;3.50;0.80;;;;;;;5.93;100.00;102769.75;6250953;28;20049;-79
2022/01/22 10:56:36;;;;;;;3.22;1.20;;;;;;;6.02;100.00;102768.88;6250630;28;20057;-80
2022/01/22 10:59:46;;;;;;;1.08;0.60;;;;;;;5.96;100.00;102766.28;6250909;28;20515;-81
2022/01/22 11:02:47;;;;;;;1.65;1.13;;;;;;;6.09;100.00;102774.09;6250237;28;20049;-80
2022/01/22 11:05:48;;;;;;;0.57;0.55;;;;;;;6.06;100.00;102758.41;6249055;28;20060;-79
2022/01/22 11:08:52;;;;;;;1.65;0.82;;;;;;;6.06;100.00;102771.47;6248802;28;20044;-79
2022/01/22 11:11:53;;;;;;;1.45;0.90;;;;;;;6.08;100.00;102764.50;6261246;28;20053;-80
2022/01/22 11:14:56;;;;;;;1.52;0.80;;;;;;;6.12;100.00;102762.75;6250805;28;20056;-78
2022/01/22 11:17:58;;;;;;;1.35;0.57;;;;;;;6.30;100.00;102762.69;6256206;28;20040;-78
2022/01/22 11:21:02;;;;;;;1.23;0.50;;;;;;;6.35;100.00;102762.69;6262677;28;20045;-77
2022/01/22 11:24:06;;;;;;;0.88;0.57;;;;;;;6.38;100.00;102762.69;6248191;28;20045;-77
2022/01/22 11:27:09;;;;;;;1.70;0.63;;;;;;;6.41;100.00;102764.44;6242008;28;20045;-78
2022/01/22 11:30:14;;;;;;;0.52;0.35;;;;;;;6.40;100.00;102760.91;6245533;28;20471;-80
2022/01/22 11:33:21;;;;;;;0.60;0.55;;;;;;;6.46;100.00;102766.16;6231406;28;20053;-75
2022/01/22 11:36:27;;;;;;;1.10;0.70;;;;;;;6.45;100.00;102766.13;6250017;28;20049;-77
2022/01/22 11:39:30;;;;;;;1.10;0.60;;;;;;;6.40;100.00;102755.69;6251259;28;20409;-76
2022/01/22 11:42:55;;;;;;;0.55;0.43;;;;;;;6.37;100.00;102774.00;6255742;28;20049;-75
2022/01/22 11:45:57;;;;;;;0.40;0.40;;;;;;;6.40;100.00;102768.75;6249738;28;20441;-79
2022/01/22 11:49:21;;;;;;;0.98;0.70;;;;;;;6.38;100.00;102770.53;6249497;28;20053;-78
2022/01/22 11:52:25;;;;;;;0.38;0.38;;;;;;;6.41;100.00;102777.50;6249525;28;20048;-81
2022/01/22 11:55:28;;;;;;;1.02;0.30;;;;;;;6.38;100.00;102780.09;6247927;28;20172;-80
2022/01/22 11:58:30;;;;;;;0.82;0.40;;;;;;;6.37;100.00;102788.81;6249723;28;20042;-77
2022/01/22 12:01:52;;;;;;;0.45;0.45;;;;;;;6.39;100.00;102785.31;6247287;28;20421;-77
2022/01/22 12:05:05;;;;;;;0.38;0.20;;;;;;;6.35;100.00;102794.88;6246065;28;20041;-79
2022/01/22 12:08:06;;;;;;;0.60;0.40;;;;;;;6.31;100.00;102794.91;6248694;28;20068;-79
2022/01/22 12:14:56;;;;;;;0.57;0.47;;;;;;;6.31;100.00;102795.78;6246153;28;20053;-79
2022/01/22 12:18:13;;;;;;;0.52;0.40;;;;;;;6.45;100.00;102792.25;6248826;28;20050;-72
2022/01/22 12:21:32;;;;;;;0.60;0.35;;;;;;;6.67;100.00;102800.88;6243447;28;20456;-78
2022/01/22 12:24:33;;;;;;;0.40;0.40;;;;;;;6.95;100.00;102804.22;6244633;28;20060;-78
2022/01/22 12:27:43;;;;;;;0.20;0.17;;;;;;;6.88;100.00;102799.94;6248726;28;20053;-79
2022/01/22 12:30:47;;;;;;;0.68;0.30;;;;;;;6.81;100.00;102802.56;6248022;28;20037;-79
2022/01/22 12:33:52;;;;;;;0.35;0.20;;;;;;;6.67;100.00;102800.88;6249401;28;20061;-78
2022/01/22 12:36:55;;;;;;;0.20;0.20;;;;;;;6.77;100.00;102805.22;6231638;28;20054;-77
2022/01/22 12:39:57;;;;;;;1.10;0.32;;;;;;;6.83;100.00;102813.00;6235367;28;20049;-77
2022/01/22 12:43:11;;;;;;;0.63;0.40;;;;;;;6.77;100.00;102808.69;6248021;28;20128;-77
2022/01/22 12:46:13;;;;;;;0.68;0.35;;;;;;;6.72;100.00;102807.84;6249908;28;20142;-77
2022/01/22 12:49:15;;;;;;;0.38;0.38;;;;;;;6.64;100.00;102806.13;6248363;28;20042;-77
2022/01/22 12:52:17;;;;;;;0.38;0.38;;;;;;;6.70;100.00;102808.72;6241923;28;20049;-77
2022/01/22 12:55:26;;;;;;;0.40;0.40;;;;;;;6.75;100.00;102804.34;6260802;28;20102;-77
2022/01/22 12:58:31;;;;;;;0.52;0.35;;;;;;;6.68;100.00;102807.88;6243411;28;20053;-76
2022/01/22 13:01:34;;;;;;;1.02;0.25;;;;;;;6.42;100.00;102794.88;6250151;28;20053;-77
2022/01/22 13:04:35;;;;;;;0.75;0.32;;;;;;;6.22;100.00;102801.03;6261976;28;20542;-77
2022/01/22 13:07:41;;;;;;;0.20;0.20;;;;;;;6.16;100.00;102803.66;6241253;28;20053;-77
2022/01/22 13:10:45;;;;;;;0.10;0.10;;;;;;;6.01;100.00;102801.94;6246932;28;20045;-77
2022/01/22 13:13:51;;;;;;;0.55;0.30;;;;;;;5.97;100.00;102797.59;6246950;28;20041;-76
2022/01/22 13:16:54;;;;;;;1.15;0.30;;;;;;;5.97;100.00;102796.72;6247049;28;20558;-77
2022/01/22 13:19:55;;;;;;;0.10;0.10;;;;;;;5.98;100.00;102811.50;6245456;28;20053;-77
2022/01/22 13:22:58;;;;;;;0.03;0.03;;;;;;;6.00;100.00;102808.03;6255966;28;20045;-77
2022/01/22 13:25:59;;;;;;;0.00;0.00;;;;;;;5.98;100.00;102809.75;6255264;28;20055;-77
2022/01/22 13:29:14;;;;;;;0.28;0.28;;;;;;;6.00;100.00;102802.81;6249934;28;20045;-77
2022/01/22 13:32:23;;;;;;;0.32;0.20;;;;;;;5.96;100.00;102805.44;6254849;28;20052;-71
2022/01/22 13:35:35;;;;;;;0.20;0.20;;;;;;;6.00;100.00;102809.78;6246218;28;20405;-76
2022/01/22 13:38:55;;;;;;;0.10;0.10;;;;;;;5.96;100.00;102790.63;6241721;28;20045;-76
2022/01/22 13:47:39;;;;;;;0.20;0.20;;;;;;;5.93;100.00;102800.19;6253107;28;20509;-76
2022/01/22 13:48:42;;;;;;;1.00;0.13;;;;;;;5.84;100.00;102796.69;6245306;28;20463;-75
2022/01/22 13:51:45;;;;;;;0.22;0.22;;;;;;;5.92;100.00;102791.50;6245849;28;20071;-78
2022/01/22 13:54:48;;;;;;;0.32;0.30;;;;;;;5.97;100.00;102799.34;6249742;28;20123;-76
2022/01/22 13:57:51;;;;;;;0.70;0.38;;;;;;;5.99;100.00;102808.00;6248924;28;20049;-74
2022/01/22 14:00:54;;;;;;;0.20;0.20;;;;;;;6.01;100.00;102801.94;6246494;28;20394;-73
2022/01/22 14:04:06;;;;;;;1.23;0.25;;;;;;;6.04;100.00;102798.44;6250702;28;20045;-76
2022/01/22 14:07:31;;;;;;;0.52;0.40;;;;;;;5.99;100.00;102805.41;6244831;28;20050;-77
2022/01/22 14:10:34;;;;;;;0.20;0.20;;;;;;;5.98;100.00;102811.50;6254971;28;20139;-76
2022/01/22 14:13:36;;;;;;;0.00;0.00;;;;;;;5.92;100.00;102808.91;6249906;28;20619;-77
2022/01/22 14:16:45;;;;;;;0.73;0.22;;;;;;;5.90;100.00;102811.47;6248345;28;20057;-77
2022/01/22 14:19:46;;;;;;;0.38;0.20;;;;;;;5.81;100.00;102812.38;6249100;28;20053;-77
2022/01/22 14:23:04;;;;;;;0.15;0.15;;;;;;;5.79;100.00;102814.09;6248796;28;20045;-77
2022/01/22 14:26:09;;;;;;;1.08;0.25;;;;;;;5.73;100.00;102808.03;6247505;28;20056;-77
2022/01/22 14:29:14;;;;;;;0.32;0.32;;;;;;;5.68;100.00;102805.41;6248531;28;20053;-76
2022/01/22 14:32:18;;;;;;;0.73;0.40;;;;;;;5.63;100.00;102804.50;6245822;28;20054;-76
2022/01/22 14:35:20;;;;;;;0.47;0.32;;;;;;;5.62;100.00;102804.53;6246167;28;20045;-76
2022/01/22 14:38:44;;;;;;;0.22;0.22;;;;;;;5.60;100.00;102805.41;6246409;28;20053;-76
2022/01/22 14:45:14;;;;;;;1.48;0.63;;;;;;;5.60;100.00;102802.78;6248711;28;20041;-76
2022/01/22 14:48:16;;;;;;;0.25;0.20;;;;;;;5.58;100.00;102807.13;6248084;28;20048;-76
2022/01/22 14:51:18;;;;;;;1.30;1.05;;;;;;;5.59;100.00;102806.28;6265925;28;20052;-76
2022/01/22 14:54:21;;;;;;;0.10;0.10;;;;;;;5.58;100.00;102804.50;6274769;28;20044;-76
2022/01/22 14:57:26;;;;;;;0.50;0.50;;;;;;;5.52;100.00;102809.72;6274971;28;20053;-76
2022/01/22 15:00:27;;;;;;;0.30;0.30;;;;;;;5.52;100.00;102817.56;6255075;28;20062;-77
2022/01/22 15:03:30;;;;;;;0.20;0.20;;;;;;;5.54;100.00;102814.94;6263956;28;20053;-76
2022/01/22 15:06:32;;;;;;;0.13;0.13;;;;;;;5.53;100.00;102821.03;6259826;28;20060;-75
2022/01/22 15:09:34;;;;;;;0.30;0.30;;;;;;;5.51;100.00;102812.34;6248857;28;20053;-75
2022/01/22 15:12:36;;;;;;;3.70;0.30;;;;;;;5.54;100.00;102814.94;6248589;28;20053;-75
2022/01/22 15:15:42;;;;;;;0.38;0.22;;;;;;;5.56;100.00;102816.69;6249516;28;20068;-75
2022/01/22 15:18:59;;;;;;;0.25;0.17;;;;;;;5.50;100.00;102815.84;6249461;28;20129;-75
2022/01/22 15:22:01;;;;;;;0.60;0.50;;;;;;;5.45;100.00;102821.03;6249332;28;20556;-75
2022/01/22 15:25:02;;;;;;;0.50;0.32;;;;;;;5.42;100.00;102834.06;6249520;28;20512;-75
2022/01/22 15:28:04;;;;;;;0.43;0.10;;;;;;;5.39;100.00;102836.66;6248811;28;20057;-75
2022/01/22 15:31:10;;;;;;;0.20;0.20;;;;;;;5.32;100.00;102835.78;6250720;28;20048;-75